Elfrida, AZ

9:59 PM MST on August 29, 2015 (GMT -0700)
(High Lonesome Ranch) | | Change Station
CLOSE
Current Station
Personal Weather Station
Location: Gleeson, AZ
Elevation: 5032 ft
Nearby Weather Stations

Elev 5032 ft 31.72 °N, 109.88 °W | Updated 9 minutes ago

Partly Cloudy
Partly Cloudy
71.1 °F
Feels Like 76 °F
N
7.0
Wind Variable Wind from NE
Gusts 11.0 mph

Today
High -- | Low -- °F
--% Chance of Precip.
Yesterday
High -- | Low -- °F
Precip. -- in
5:52 AM 6:46 PM
Full, 100% visible
Pressure 29.97 in
Visibility 10.0 miles
Clouds Clear
Heat Index 76 °F
Dew Point 55 °F
Humidity 57%
Rainfall 0.00 in
Snow Depth Not available.
UV 0 out of 12
Pollen 5.10 out of 12
Air Quality Not available.
Flu Activity Not available.
METAR KFHU 300458Z AUTO 17007KT 10SM CLR 23/15 A3020 RMK AO2 LTG DSNT E AND W SLP149 T02330145 $
Pressure 29.97 in
Visibility 10.0 miles
Clouds Clear
Heat Index 76 °F
Dew Point 55 °F
Humidity 57%
Rainfall 0.00 in
Snow Depth Not available.
UV 0 out of 12
Pollen 5.10 out of 12
Air Quality Not available.
Flu Activity Not available.
METAR KFHU 300458Z AUTO 17007KT 10SM CLR 23/15 A3020 RMK AO2 LTG DSNT E AND W SLP149 T02330145 $

10-Day Weather Forecast

×

Almanac

Astronomy

Aug. 29, 2015 Rise Set
Actual Time
Civil Twilight
Nautical Twilight
Astronomical Twilight
Moon
Length of Visible Light
Length of Day
Tomorrow will be .
, % of the Moon is Illuminated

Today's Extremes

State Highs State Lows

Community

WunderPhotos

Upload Photos

1,850,887 photos uploaded!

WunderBlogs® & News

Nearby

Air Quality

  Air Quality AQ Index Pollutant
Not available.

Snow Depth

Station Depth Elevation

Earthquake Activity

City Distance Mag. Time & Date
Minimum magnitude displayed is 2.5.

Coastal Water Temperatures

Place Temperature

Stations

Nearby Weather Stations

Station Location Temp. Windchill Dew Point Humidity Wind Precip. Elev Updated Type